<?xml version="1.0" encoding="UTF-8" standalone="no" ?>
<gpx xmlns="http://www.topografix.com/GPX/1/1" xmlns:xsi="http://www.w3.org/2001/XMLSchema-instance" xsi:schemaLocation="http://www.topografix.com/GPX/1/1 http://www.topografix.com/GPX/1/1/gpx.xsd" version="1.1" creator="VisuGPX - https://www.visugpx.com">
  <metadata>
    <name>Getigne_Autour10-22km</name>
    <desc><![CDATA[gnerando idor: 7899428_7903072_7903246_9380870]]></desc>
  </metadata>
  <trk>
    <name><![CDATA[Getigne_SevreEtMoine_12km-7903072]]></name>
    <extensions>
      <line xmlns="http://www.topografix.com/GPX/gpx_style/0/2">
        <color>00FF00</color>
        <width>4</width>
      </line>
    </extensions>
    <trkseg>
      <trkpt lat="47.0854" lon="-1.26216">
        <ele>38</ele>
        <time>2023-11-01T19:02:57Z</time>
      </trkpt>
      <trkpt lat="47.0855" lon="-1.26242">
        <ele>38</ele>
        <time>2023-11-01T19:03:24Z</time>
      </trkpt>
      <trkpt lat="47.08557" lon="-1.26268">
        <ele>38</ele>
        <time>2023-11-01T19:03:50Z</time>
      </trkpt>
      <trkpt lat="47.08576" lon="-1.26299">
        <ele>39</ele>
        <time>2023-11-01T19:04:27Z</time>
      </trkpt>
      <trkpt lat="47.08579" lon="-1.26364">
        <ele>39</ele>
        <time>2023-11-01T19:05:27Z</time>
      </trkpt>
      <trkpt lat="47.08625" lon="-1.26435">
        <ele>39</ele>
        <time>2023-11-01T19:06:56Z</time>
      </trkpt>
      <trkpt lat="47.08596" lon="-1.2653">
        <ele>38</ele>
        <time>2023-11-01T19:08:30Z</time>
      </trkpt>
      <trkpt lat="47.08603" lon="-1.26547">
        <ele>38</ele>
        <time>2023-11-01T19:08:48Z</time>
      </trkpt>
      <trkpt lat="47.08602" lon="-1.26593">
        <ele>37</ele>
        <time>2023-11-01T19:09:30Z</time>
      </trkpt>
      <trkpt lat="47.08606" lon="-1.26619">
        <ele>37</ele>
        <time>2023-11-01T19:09:54Z</time>
      </trkpt>
      <trkpt lat="47.08614" lon="-1.26652">
        <ele>37</ele>
        <time>2023-11-01T19:10:26Z</time>
      </trkpt>
      <trkpt lat="47.0862" lon="-1.26672">
        <ele>37</ele>
        <time>2023-11-01T19:10:46Z</time>
      </trkpt>
      <trkpt lat="47.08626" lon="-1.26707">
        <ele>37</ele>
        <time>2023-11-01T19:11:19Z</time>
      </trkpt>
      <trkpt lat="47.08642" lon="-1.26753">
        <ele>36</ele>
        <time>2023-11-01T19:12:06Z</time>
      </trkpt>
      <trkpt lat="47.08666" lon="-1.26765">
        <ele>37</ele>
        <time>2023-11-01T19:12:40Z</time>
      </trkpt>
      <trkpt lat="47.08689" lon="-1.26786">
        <ele>36</ele>
        <time>2023-11-01T19:13:16Z</time>
      </trkpt>
      <trkpt lat="47.08734" lon="-1.26693">
        <ele>36</ele>
        <time>2023-11-01T19:14:59Z</time>
      </trkpt>
      <trkpt lat="47.08819" lon="-1.26575">
        <ele>37</ele>
        <time>2023-11-01T19:17:36Z</time>
      </trkpt>
      <trkpt lat="47.08872" lon="-1.26487">
        <ele>37</ele>
        <time>2023-11-01T19:19:22Z</time>
      </trkpt>
      <trkpt lat="47.08935" lon="-1.2635">
        <ele>35</ele>
        <time>2023-11-01T19:21:52Z</time>
      </trkpt>
      <trkpt lat="47.08968" lon="-1.26227">
        <ele>33</ele>
        <time>2023-11-01T19:23:53Z</time>
      </trkpt>
      <trkpt lat="47.08988" lon="-1.26138">
        <ele>32</ele>
        <time>2023-11-01T19:25:18Z</time>
      </trkpt>
      <trkpt lat="47.09051" lon="-1.25985">
        <ele>28</ele>
        <time>2023-11-01T19:28:00Z</time>
      </trkpt>
      <trkpt lat="47.09076" lon="-1.25863">
        <ele>29</ele>
        <time>2023-11-01T19:29:56Z</time>
      </trkpt>
      <trkpt lat="47.09149" lon="-1.25717">
        <ele>26</ele>
        <time>2023-11-01T19:32:41Z</time>
      </trkpt>
      <trkpt lat="47.09198" lon="-1.25637">
        <ele>27</ele>
        <time>2023-11-01T19:34:18Z</time>
      </trkpt>
      <trkpt lat="47.09316" lon="-1.25523">
        <ele>29</ele>
        <time>2023-11-01T19:37:27Z</time>
      </trkpt>
      <trkpt lat="47.09364" lon="-1.25326">
        <ele>34</ele>
        <time>2023-11-01T19:40:37Z</time>
      </trkpt>
      <trkpt lat="47.0937" lon="-1.25215">
        <ele>36</ele>
        <time>2023-11-01T19:42:18Z</time>
      </trkpt>
      <trkpt lat="47.09377" lon="-1.25081">
        <ele>36</ele>
        <time>2023-11-01T19:44:20Z</time>
      </trkpt>
      <trkpt lat="47.09465" lon="-1.24749">
        <ele>33</ele>
        <time>2023-11-01T19:49:44Z</time>
      </trkpt>
      <trkpt lat="47.09297" lon="-1.24639">
        <ele>40</ele>
        <time>2023-11-01T19:53:49Z</time>
      </trkpt>
      <trkpt lat="47.09322" lon="-1.24535">
        <ele>40</ele>
        <time>2023-11-01T19:55:29Z</time>
      </trkpt>
      <trkpt lat="47.09322" lon="-1.2439">
        <ele>41</ele>
        <time>2023-11-01T19:57:41Z</time>
      </trkpt>
      <trkpt lat="47.0933" lon="-1.24281">
        <ele>43</ele>
        <time>2023-11-01T19:59:21Z</time>
      </trkpt>
      <trkpt lat="47.09357" lon="-1.2413">
        <ele>42</ele>
        <time>2023-11-01T20:01:43Z</time>
      </trkpt>
      <trkpt lat="47.09347" lon="-1.24014">
        <ele>45</ele>
        <time>2023-11-01T20:03:29Z</time>
      </trkpt>
      <trkpt lat="47.09366" lon="-1.23919">
        <ele>47</ele>
        <time>2023-11-01T20:04:59Z</time>
      </trkpt>
      <trkpt lat="47.09392" lon="-1.23796">
        <ele>49</ele>
        <time>2023-11-01T20:06:56Z</time>
      </trkpt>
      <trkpt lat="47.09426" lon="-1.23612">
        <ele>49</ele>
        <time>2023-11-01T20:09:49Z</time>
      </trkpt>
      <trkpt lat="47.09458" lon="-1.23502">
        <ele>51</ele>
        <time>2023-11-01T20:11:38Z</time>
      </trkpt>
      <trkpt lat="47.09444" lon="-1.23363">
        <ele>54</ele>
        <time>2023-11-01T20:13:45Z</time>
      </trkpt>
      <trkpt lat="47.09382" lon="-1.23127">
        <ele>59</ele>
        <time>2023-11-01T20:17:35Z</time>
      </trkpt>
      <trkpt lat="47.09339" lon="-1.22942">
        <ele>61</ele>
        <time>2023-11-01T20:20:33Z</time>
      </trkpt>
      <trkpt lat="47.09368" lon="-1.22834">
        <ele>62</ele>
        <time>2023-11-01T20:22:18Z</time>
      </trkpt>
      <trkpt lat="47.09385" lon="-1.22751">
        <ele>63</ele>
        <time>2023-11-01T20:23:37Z</time>
      </trkpt>
      <trkpt lat="47.09486" lon="-1.22787">
        <ele>64</ele>
        <time>2023-11-01T20:25:56Z</time>
      </trkpt>
      <trkpt lat="47.09578" lon="-1.22823">
        <ele>63</ele>
        <time>2023-11-01T20:28:03Z</time>
      </trkpt>
      <trkpt lat="47.09624" lon="-1.2283">
        <ele>62</ele>
        <time>2023-11-01T20:29:04Z</time>
      </trkpt>
      <trkpt lat="47.09622" lon="-1.2287">
        <ele>62</ele>
        <time>2023-11-01T20:29:41Z</time>
      </trkpt>
      <trkpt lat="47.09678" lon="-1.22929">
        <ele>59</ele>
        <time>2023-11-01T20:31:13Z</time>
      </trkpt>
      <trkpt lat="47.09763" lon="-1.22948">
        <ele>56</ele>
        <time>2023-11-01T20:33:08Z</time>
      </trkpt>
      <trkpt lat="47.09737" lon="-1.23058">
        <ele>51</ele>
        <time>2023-11-01T20:34:53Z</time>
      </trkpt>
      <trkpt lat="47.09796" lon="-1.23133">
        <ele>40</ele>
        <time>2023-11-01T20:36:37Z</time>
      </trkpt>
      <trkpt lat="47.09821" lon="-1.2326">
        <ele>27</ele>
        <time>2023-11-01T20:38:38Z</time>
      </trkpt>
      <trkpt lat="47.09825" lon="-1.23304">
        <ele>32</ele>
        <time>2023-11-01T20:39:18Z</time>
      </trkpt>
      <trkpt lat="47.09738" lon="-1.23373">
        <ele>32</ele>
        <time>2023-11-01T20:41:30Z</time>
      </trkpt>
      <trkpt lat="47.09665" lon="-1.23441">
        <ele>26</ele>
        <time>2023-11-01T20:43:25Z</time>
      </trkpt>
      <trkpt lat="47.09641" lon="-1.23525">
        <ele>31</ele>
        <time>2023-11-01T20:44:48Z</time>
      </trkpt>
      <trkpt lat="47.09642" lon="-1.23644">
        <ele>31</ele>
        <time>2023-11-01T20:46:36Z</time>
      </trkpt>
      <trkpt lat="47.09653" lon="-1.23767">
        <ele>30</ele>
        <time>2023-11-01T20:48:29Z</time>
      </trkpt>
      <trkpt lat="47.09649" lon="-1.23858">
        <ele>31</ele>
        <time>2023-11-01T20:49:52Z</time>
      </trkpt>
      <trkpt lat="47.09609" lon="-1.23947">
        <ele>33</ele>
        <time>2023-11-01T20:51:29Z</time>
      </trkpt>
      <trkpt lat="47.09536" lon="-1.24003">
        <ele>31</ele>
        <time>2023-11-01T20:53:18Z</time>
      </trkpt>
      <trkpt lat="47.09495" lon="-1.24054">
        <ele>31</ele>
        <time>2023-11-01T20:54:30Z</time>
      </trkpt>
      <trkpt lat="47.09512" lon="-1.24186">
        <ele>35</ele>
        <time>2023-11-01T20:56:32Z</time>
      </trkpt>
      <trkpt lat="47.09535" lon="-1.24216">
        <ele>36</ele>
        <time>2023-11-01T20:57:13Z</time>
      </trkpt>
      <trkpt lat="47.09529" lon="-1.24284">
        <ele>33</ele>
        <time>2023-11-01T20:58:15Z</time>
      </trkpt>
      <trkpt lat="47.09594" lon="-1.24338">
        <ele>39</ele>
        <time>2023-11-01T20:59:55Z</time>
      </trkpt>
      <trkpt lat="47.0966" lon="-1.24398">
        <ele>41</ele>
        <time>2023-11-01T21:01:39Z</time>
      </trkpt>
      <trkpt lat="47.09719" lon="-1.24451">
        <ele>44</ele>
        <time>2023-11-01T21:03:11Z</time>
      </trkpt>
      <trkpt lat="47.09776" lon="-1.24469">
        <ele>46</ele>
        <time>2023-11-01T21:04:29Z</time>
      </trkpt>
      <trkpt lat="47.09847" lon="-1.24499">
        <ele>44</ele>
        <time>2023-11-01T21:06:07Z</time>
      </trkpt>
      <trkpt lat="47.09829" lon="-1.24606">
        <ele>39</ele>
        <time>2023-11-01T21:07:48Z</time>
      </trkpt>
      <trkpt lat="47.0984" lon="-1.24711">
        <ele>33</ele>
        <time>2023-11-01T21:09:24Z</time>
      </trkpt>
      <trkpt lat="47.09856" lon="-1.24798">
        <ele>29</ele>
        <time>2023-11-01T21:10:46Z</time>
      </trkpt>
      <trkpt lat="47.09849" lon="-1.25114">
        <ele>31</ele>
        <time>2023-11-01T21:15:33Z</time>
      </trkpt>
      <trkpt lat="47.09781" lon="-1.25332">
        <ele>33</ele>
        <time>2023-11-01T21:19:11Z</time>
      </trkpt>
      <trkpt lat="47.09678" lon="-1.25268">
        <ele>27</ele>
        <time>2023-11-01T21:21:40Z</time>
      </trkpt>
      <trkpt lat="47.09612" lon="-1.25255">
        <ele>22</ele>
        <time>2023-11-01T21:23:09Z</time>
      </trkpt>
      <trkpt lat="47.09564" lon="-1.253">
        <ele>21</ele>
        <time>2023-11-01T21:24:25Z</time>
      </trkpt>
      <trkpt lat="47.09573" lon="-1.25489">
        <ele>20</ele>
        <time>2023-11-01T21:27:17Z</time>
      </trkpt>
      <trkpt lat="47.09508" lon="-1.25628">
        <ele>20</ele>
        <time>2023-11-01T21:29:50Z</time>
      </trkpt>
      <trkpt lat="47.09499" lon="-1.25752">
        <ele>19</ele>
        <time>2023-11-01T21:31:44Z</time>
      </trkpt>
      <trkpt lat="47.09492" lon="-1.25914">
        <ele>18</ele>
        <time>2023-11-01T21:34:11Z</time>
      </trkpt>
      <trkpt lat="47.09477" lon="-1.25999">
        <ele>22</ele>
        <time>2023-11-01T21:35:31Z</time>
      </trkpt>
      <trkpt lat="47.09459" lon="-1.26074">
        <ele>28</ele>
        <time>2023-11-01T21:36:43Z</time>
      </trkpt>
      <trkpt lat="47.09392" lon="-1.261">
        <ele>29</ele>
        <time>2023-11-01T21:38:16Z</time>
      </trkpt>
      <trkpt lat="47.09338" lon="-1.26077">
        <ele>26</ele>
        <time>2023-11-01T21:39:31Z</time>
      </trkpt>
      <trkpt lat="47.09315" lon="-1.26109">
        <ele>27</ele>
        <time>2023-11-01T21:40:13Z</time>
      </trkpt>
      <trkpt lat="47.09274" lon="-1.26157">
        <ele>28</ele>
        <time>2023-11-01T21:41:23Z</time>
      </trkpt>
      <trkpt lat="47.09274" lon="-1.26209">
        <ele>30</ele>
        <time>2023-11-01T21:42:10Z</time>
      </trkpt>
      <trkpt lat="47.093" lon="-1.26243">
        <ele>32</ele>
        <time>2023-11-01T21:42:57Z</time>
      </trkpt>
      <trkpt lat="47.09222" lon="-1.26378">
        <ele>29</ele>
        <time>2023-11-01T21:45:37Z</time>
      </trkpt>
      <trkpt lat="47.0917" lon="-1.26396">
        <ele>25</ele>
        <time>2023-11-01T21:46:49Z</time>
      </trkpt>
      <trkpt lat="47.09132" lon="-1.26454">
        <ele>23</ele>
        <time>2023-11-01T21:48:02Z</time>
      </trkpt>
      <trkpt lat="47.09085" lon="-1.26572">
        <ele>19</ele>
        <time>2023-11-01T21:50:06Z</time>
      </trkpt>
      <trkpt lat="47.0906" lon="-1.26722">
        <ele>22</ele>
        <time>2023-11-01T21:52:26Z</time>
      </trkpt>
      <trkpt lat="47.08981" lon="-1.26858">
        <ele>22</ele>
        <time>2023-11-01T21:55:09Z</time>
      </trkpt>
      <trkpt lat="47.08942" lon="-1.26943">
        <ele>23</ele>
        <time>2023-11-01T21:56:42Z</time>
      </trkpt>
      <trkpt lat="47.0896" lon="-1.26988">
        <ele>26</ele>
        <time>2023-11-01T21:57:29Z</time>
      </trkpt>
      <trkpt lat="47.08954" lon="-1.27059">
        <ele>26</ele>
        <time>2023-11-01T21:58:34Z</time>
      </trkpt>
      <trkpt lat="47.08963" lon="-1.27117">
        <ele>28</ele>
        <time>2023-11-01T21:59:28Z</time>
      </trkpt>
      <trkpt lat="47.08976" lon="-1.27142">
        <ele>30</ele>
        <time>2023-11-01T21:59:57Z</time>
      </trkpt>
      <trkpt lat="47.0902" lon="-1.27208">
        <ele>32</ele>
        <time>2023-11-01T22:01:21Z</time>
      </trkpt>
      <trkpt lat="47.09003" lon="-1.27336">
        <ele>32</ele>
        <time>2023-11-01T22:03:19Z</time>
      </trkpt>
      <trkpt lat="47.09005" lon="-1.27514">
        <ele>33</ele>
        <time>2023-11-01T22:06:01Z</time>
      </trkpt>
      <trkpt lat="47.0894" lon="-1.27491">
        <ele>30</ele>
        <time>2023-11-01T22:07:30Z</time>
      </trkpt>
      <trkpt lat="47.08904" lon="-1.27552">
        <ele>29</ele>
        <time>2023-11-01T22:08:44Z</time>
      </trkpt>
      <trkpt lat="47.08891" lon="-1.2759">
        <ele>30</ele>
        <time>2023-11-01T22:09:22Z</time>
      </trkpt>
      <trkpt lat="47.08871" lon="-1.27576">
        <ele>28</ele>
        <time>2023-11-01T22:09:52Z</time>
      </trkpt>
      <trkpt lat="47.0886" lon="-1.27614">
        <ele>28</ele>
        <time>2023-11-01T22:10:29Z</time>
      </trkpt>
      <trkpt lat="47.08846" lon="-1.27601">
        <ele>27</ele>
        <time>2023-11-01T22:10:52Z</time>
      </trkpt>
      <trkpt lat="47.08851" lon="-1.27574">
        <ele>26</ele>
        <time>2023-11-01T22:11:17Z</time>
      </trkpt>
      <trkpt lat="47.0884" lon="-1.27563">
        <ele>25</ele>
        <time>2023-11-01T22:11:35Z</time>
      </trkpt>
      <trkpt lat="47.08832" lon="-1.27565">
        <ele>24</ele>
        <time>2023-11-01T22:11:46Z</time>
      </trkpt>
      <trkpt lat="47.08821" lon="-1.27571">
        <ele>25</ele>
        <time>2023-11-01T22:12:01Z</time>
      </trkpt>
      <trkpt lat="47.08806" lon="-1.27581">
        <ele>24</ele>
        <time>2023-11-01T22:12:23Z</time>
      </trkpt>
      <trkpt lat="47.08768" lon="-1.27649">
        <ele>20</ele>
        <time>2023-11-01T22:13:43Z</time>
      </trkpt>
      <trkpt lat="47.0876" lon="-1.27687">
        <ele>18</ele>
        <time>2023-11-01T22:14:19Z</time>
      </trkpt>
      <trkpt lat="47.08747" lon="-1.27689">
        <ele>17</ele>
        <time>2023-11-01T22:14:37Z</time>
      </trkpt>
      <trkpt lat="47.08733" lon="-1.27719">
        <ele>17</ele>
        <time>2023-11-01T22:15:10Z</time>
      </trkpt>
      <trkpt lat="47.08731" lon="-1.27742">
        <ele>17</ele>
        <time>2023-11-01T22:15:31Z</time>
      </trkpt>
      <trkpt lat="47.08724" lon="-1.27758">
        <ele>17</ele>
        <time>2023-11-01T22:15:48Z</time>
      </trkpt>
      <trkpt lat="47.08715" lon="-1.27776">
        <ele>17</ele>
        <time>2023-11-01T22:16:08Z</time>
      </trkpt>
      <trkpt lat="47.08702" lon="-1.27818">
        <ele>17</ele>
        <time>2023-11-01T22:16:50Z</time>
      </trkpt>
      <trkpt lat="47.08706" lon="-1.2784">
        <ele>16</ele>
        <time>2023-11-01T22:17:11Z</time>
      </trkpt>
      <trkpt lat="47.08702" lon="-1.27855">
        <ele>16</ele>
        <time>2023-11-01T22:17:26Z</time>
      </trkpt>
      <trkpt lat="47.08724" lon="-1.27885">
        <ele>16</ele>
        <time>2023-11-01T22:18:06Z</time>
      </trkpt>
      <trkpt lat="47.08714" lon="-1.27934">
        <ele>16</ele>
        <time>2023-11-01T22:18:52Z</time>
      </trkpt>
      <trkpt lat="47.08685" lon="-1.28016">
        <ele>21</ele>
        <time>2023-11-01T22:20:16Z</time>
      </trkpt>
      <trkpt lat="47.08651" lon="-1.27985">
        <ele>20</ele>
        <time>2023-11-01T22:21:10Z</time>
      </trkpt>
      <trkpt lat="47.0859" lon="-1.27964">
        <ele>24</ele>
        <time>2023-11-01T22:22:33Z</time>
      </trkpt>
      <trkpt lat="47.08571" lon="-1.27952">
        <ele>25</ele>
        <time>2023-11-01T22:23:01Z</time>
      </trkpt>
      <trkpt lat="47.08569" lon="-1.27936">
        <ele>25</ele>
        <time>2023-11-01T22:23:16Z</time>
      </trkpt>
      <trkpt lat="47.08554" lon="-1.27929">
        <ele>26</ele>
        <time>2023-11-01T22:23:37Z</time>
      </trkpt>
      <trkpt lat="47.08562" lon="-1.27898">
        <ele>24</ele>
        <time>2023-11-01T22:24:07Z</time>
      </trkpt>
      <trkpt lat="47.08563" lon="-1.27873">
        <ele>23</ele>
        <time>2023-11-01T22:24:29Z</time>
      </trkpt>
      <trkpt lat="47.08544" lon="-1.2784">
        <ele>24</ele>
        <time>2023-11-01T22:25:09Z</time>
      </trkpt>
      <trkpt lat="47.08486" lon="-1.27775">
        <ele>24</ele>
        <time>2023-11-01T22:26:46Z</time>
      </trkpt>
      <trkpt lat="47.08459" lon="-1.27751">
        <ele>24</ele>
        <time>2023-11-01T22:27:28Z</time>
      </trkpt>
      <trkpt lat="47.08434" lon="-1.27719">
        <ele>23</ele>
        <time>2023-11-01T22:28:12Z</time>
      </trkpt>
      <trkpt lat="47.08408" lon="-1.27683">
        <ele>21</ele>
        <time>2023-11-01T22:29:00Z</time>
      </trkpt>
      <trkpt lat="47.08371" lon="-1.2766">
        <ele>22</ele>
        <time>2023-11-01T22:29:54Z</time>
      </trkpt>
      <trkpt lat="47.08337" lon="-1.27637">
        <ele>22</ele>
        <time>2023-11-01T22:30:44Z</time>
      </trkpt>
      <trkpt lat="47.08302" lon="-1.27629">
        <ele>23</ele>
        <time>2023-11-01T22:31:31Z</time>
      </trkpt>
      <trkpt lat="47.08285" lon="-1.27607">
        <ele>22</ele>
        <time>2023-11-01T22:32:01Z</time>
      </trkpt>
      <trkpt lat="47.08256" lon="-1.27577">
        <ele>21</ele>
        <time>2023-11-01T22:32:49Z</time>
      </trkpt>
      <trkpt lat="47.08262" lon="-1.27504">
        <ele>18</ele>
        <time>2023-11-01T22:33:55Z</time>
      </trkpt>
      <trkpt lat="47.08295" lon="-1.2741">
        <ele>18</ele>
        <time>2023-11-01T22:35:31Z</time>
      </trkpt>
      <trkpt lat="47.08283" lon="-1.27355">
        <ele>21</ele>
        <time>2023-11-01T22:36:24Z</time>
      </trkpt>
      <trkpt lat="47.08277" lon="-1.27283">
        <ele>25</ele>
        <time>2023-11-01T22:37:30Z</time>
      </trkpt>
      <trkpt lat="47.08305" lon="-1.27146">
        <ele>26</ele>
        <time>2023-11-01T22:39:40Z</time>
      </trkpt>
      <trkpt lat="47.08329" lon="-1.27092">
        <ele>24</ele>
        <time>2023-11-01T22:40:38Z</time>
      </trkpt>
      <trkpt lat="47.08357" lon="-1.27076">
        <ele>23</ele>
        <time>2023-11-01T22:41:18Z</time>
      </trkpt>
      <trkpt lat="47.08373" lon="-1.27053">
        <ele>22</ele>
        <time>2023-11-01T22:41:48Z</time>
      </trkpt>
      <trkpt lat="47.08389" lon="-1.26999">
        <ele>23</ele>
        <time>2023-11-01T22:42:42Z</time>
      </trkpt>
      <trkpt lat="47.08422" lon="-1.26959">
        <ele>21</ele>
        <time>2023-11-01T22:43:39Z</time>
      </trkpt>
      <trkpt lat="47.08425" lon="-1.26941">
        <ele>22</ele>
        <time>2023-11-01T22:43:56Z</time>
      </trkpt>
      <trkpt lat="47.08452" lon="-1.2694">
        <ele>20</ele>
        <time>2023-11-01T22:44:32Z</time>
      </trkpt>
      <trkpt lat="47.0845" lon="-1.26871">
        <ele>22</ele>
        <time>2023-11-01T22:45:35Z</time>
      </trkpt>
      <trkpt lat="47.08431" lon="-1.26822">
        <ele>24</ele>
        <time>2023-11-01T22:46:26Z</time>
      </trkpt>
      <trkpt lat="47.08403" lon="-1.2677">
        <ele>26</ele>
        <time>2023-11-01T22:47:26Z</time>
      </trkpt>
      <trkpt lat="47.08357" lon="-1.26724">
        <ele>27</ele>
        <time>2023-11-01T22:48:40Z</time>
      </trkpt>
      <trkpt lat="47.08315" lon="-1.2665">
        <ele>24</ele>
        <time>2023-11-01T22:50:08Z</time>
      </trkpt>
      <trkpt lat="47.08289" lon="-1.26623">
        <ele>25</ele>
        <time>2023-11-01T22:50:50Z</time>
      </trkpt>
      <trkpt lat="47.08333" lon="-1.26563">
        <ele>22</ele>
        <time>2023-11-01T22:52:11Z</time>
      </trkpt>
      <trkpt lat="47.08348" lon="-1.26533">
        <ele>25</ele>
        <time>2023-11-01T22:52:44Z</time>
      </trkpt>
      <trkpt lat="47.0838" lon="-1.26494">
        <ele>31</ele>
        <time>2023-11-01T22:53:40Z</time>
      </trkpt>
      <trkpt lat="47.08434" lon="-1.26458">
        <ele>35</ele>
        <time>2023-11-01T22:54:59Z</time>
      </trkpt>
      <trkpt lat="47.08506" lon="-1.26394">
        <ele>39</ele>
        <time>2023-11-01T22:56:51Z</time>
      </trkpt>
      <trkpt lat="47.0857" lon="-1.26574">
        <ele>37</ele>
        <time>2023-11-01T22:59:56Z</time>
      </trkpt>
      <trkpt lat="47.08597" lon="-1.26533">
        <ele>38</ele>
        <time>2023-11-01T23:00:48Z</time>
      </trkpt>
      <trkpt lat="47.08627" lon="-1.26463">
        <ele>39</ele>
        <time>2023-11-01T23:02:03Z</time>
      </trkpt>
      <trkpt lat="47.08616" lon="-1.26422">
        <ele>39</ele>
        <time>2023-11-01T23:02:43Z</time>
      </trkpt>
      <trkpt lat="47.08589" lon="-1.26379">
        <ele>39</ele>
        <time>2023-11-01T23:03:36Z</time>
      </trkpt>
      <trkpt lat="47.0858" lon="-1.26347">
        <ele>39</ele>
        <time>2023-11-01T23:04:07Z</time>
      </trkpt>
      <trkpt lat="47.08577" lon="-1.26295">
        <ele>38</ele>
        <time>2023-11-01T23:04:55Z</time>
      </trkpt>
      <trkpt lat="47.08545" lon="-1.26261">
        <ele>38</ele>
        <time>2023-11-01T23:05:48Z</time>
      </trkpt>
      <trkpt lat="47.08539" lon="-1.26224">
        <ele>38</ele>
        <time>2023-11-01T23:06:22Z</time>
      </trkpt>
    </trkseg>
  </trk>
</gpx>